Time;durP1;ratioP1;P1;durP2;ratioP2;P2;SDS_P1;SDS_P2;PMS_P1;PMS_P2;Temp;Humidity;BMP_temperature;BMP_pressure;BME280_temperature;BME280_humidity;BME280_pressure;Samples;Min_cycle;Max_cycle;Signal;HPM_P1;HPM_P2
2021/07/08 00:01:56;;;;;;;9.35;5.35;;;17.40;99.90;;;;;;5086197;28;20054;-67
2021/07/08 00:04:23;;;;;;;8.50;4.70;;;17.40;99.90;;;;;;5082756;28;20043;-66
2021/07/08 00:06:50;;;;;;;8.80;5.65;;;17.40;99.90;;;;;;5084551;27;20047;-67
2021/07/08 00:09:19;;;;;;;9.20;5.25;;;17.50;99.90;;;;;;5082058;28;20475;-67
2021/07/08 00:11:46;;;;;;;9.52;4.97;;;17.50;99.90;;;;;;5080964;28;20524;-67
2021/07/08 00:14:13;;;;;;;9.27;5.68;;;17.50;99.90;;;;;;5078363;28;20075;-67
2021/07/08 00:16:40;;;;;;;9.95;5.80;;;17.50;99.90;;;;;;5081746;28;20443;-67
2021/07/08 00:19:09;;;;;;;11.88;5.90;;;17.50;99.90;;;;;;5080871;28;20044;-67
2021/07/08 00:21:37;;;;;;;10.90;6.40;;;17.50;99.90;;;;;;5080983;28;20121;-67
2021/07/08 00:24:05;;;;;;;11.82;6.13;;;17.40;99.90;;;;;;5078943;28;20051;-67
2021/07/08 00:26:32;;;;;;;9.07;5.13;;;17.40;99.90;;;;;;5079937;28;20180;-67
2021/07/08 00:29:00;;;;;;;8.07;5.47;;;17.30;99.90;;;;;;5079889;28;20492;-66
2021/07/08 00:31:27;;;;;;;9.15;5.22;;;17.40;99.90;;;;;;5081869;28;20052;-67
2021/07/08 00:33:54;;;;;;;9.10;5.85;;;17.40;99.90;;;;;;5079668;28;20113;-67
2021/07/08 00:36:22;;;;;;;10.20;6.45;;;17.30;99.90;;;;;;5081796;28;20060;-67
2021/07/08 00:38:49;;;;;;;13.55;5.90;;;17.40;99.90;;;;;;5080397;28;20130;-67
2021/07/08 00:41:16;;;;;;;11.05;5.68;;;17.40;99.90;;;;;;5080908;28;20099;-67
2021/07/08 00:43:43;;;;;;;8.43;5.95;;;17.40;99.90;;;;;;5080125;28;20052;-66
2021/07/08 00:46:10;;;;;;;9.80;6.00;;;17.40;99.90;;;;;;5079793;28;20043;-67
2021/07/08 00:48:37;;;;;;;9.25;5.75;;;17.40;99.90;;;;;;5078645;28;20075;-67
2021/07/08 00:51:04;;;;;;;9.75;5.80;;;17.40;99.90;;;;;;5079307;28;20088;-67
2021/07/08 00:53:32;;;;;;;12.57;5.40;;;17.50;99.90;;;;;;5077518;28;20565;-67
2021/07/08 00:56:02;;;;;;;9.98;5.65;;;17.50;99.90;;;;;;5078842;28;20139;-67
2021/07/08 00:58:29;;;;;;;8.15;5.25;;;17.50;99.90;;;;;;5078514;28;20486;-67
2021/07/08 01:00:56;;;;;;;7.45;5.35;;;17.50;99.90;;;;;;5076571;28;20115;-67
2021/07/08 01:03:24;;;;;;;10.02;5.60;;;17.40;99.90;;;;;;5076562;28;20051;-67
2021/07/08 01:05:53;;;;;;;9.80;6.13;;;17.40;99.90;;;;;;5077945;28;20075;-67
2021/07/08 01:08:21;;;;;;;14.95;5.72;;;17.40;99.90;;;;;;5075159;28;20160;-66
2021/07/08 01:10:51;;;;;;;9.20;5.35;;;17.40;99.90;;;;;;5078286;28;20048;-67
2021/07/08 01:13:20;;;;;;;10.10;5.10;;;17.40;99.90;;;;;;5077053;28;20139;-66
2021/07/08 01:15:47;;;;;;;8.48;5.10;;;17.40;99.90;;;;;;5081295;28;20051;-67
2021/07/08 01:18:14;;;;;;;10.15;5.35;;;17.30;99.90;;;;;;5078837;28;20056;-67
2021/07/08 01:20:41;;;;;;;11.52;5.63;;;17.30;99.90;;;;;;5079998;28;20079;-67
2021/07/08 01:23:09;;;;;;;12.05;5.10;;;17.40;99.90;;;;;;5079877;28;20056;-67
2021/07/08 01:25:38;;;;;;;10.77;5.53;;;17.30;99.90;;;;;;5080466;28;20512;-67
2021/07/08 01:28:07;;;;;;;9.48;5.10;;;17.30;99.90;;;;;;5078138;28;20120;-67
2021/07/08 01:30:35;;;;;;;11.93;5.38;;;17.30;99.90;;;;;;5080055;28;20083;-67
2021/07/08 01:33:03;;;;;;;10.15;5.47;;;17.30;99.90;;;;;;5079336;28;20051;-67
2021/07/08 01:35:30;;;;;;;12.95;5.80;;;17.30;99.90;;;;;;5081541;28;20066;-67
2021/07/08 01:37:57;;;;;;;11.77;5.95;;;17.30;99.90;;;;;;5078289;28;20109;-67
2021/07/08 01:40:26;;;;;;;7.65;5.45;;;17.20;99.90;;;;;;5079033;28;20520;-67
2021/07/08 01:42:53;;;;;;;10.95;6.22;;;17.20;99.90;;;;;;5078580;28;20113;-67
2021/07/08 01:45:20;;;;;;;10.93;6.20;;;17.30;99.90;;;;;;5079647;28;20040;-67
2021/07/08 01:47:47;;;;;;;10.65;6.93;;;17.30;99.90;;;;;;5078885;28;20135;-67
2021/07/08 01:50:17;;;;;;;10.70;6.45;;;17.30;99.90;;;;;;5077137;28;20048;-67
2021/07/08 01:52:45;;;;;;;11.18;6.22;;;17.20;99.90;;;;;;5078211;28;20117;-67
2021/07/08 01:55:13;;;;;;;10.95;6.45;;;17.20;99.90;;;;;;5078993;28;20152;-67
2021/07/08 01:57:43;;;;;;;11.13;6.60;;;17.30;99.90;;;;;;5077005;28;20055;-67
2021/07/08 02:00:12;;;;;;;10.95;6.43;;;17.30;99.90;;;;;;5078250;28;20654;-67
2021/07/08 02:02:39;;;;;;;10.43;5.75;;;17.30;99.90;;;;;;5079493;28;20051;-67
2021/07/08 02:05:07;;;;;;;10.25;6.40;;;17.30;99.90;;;;;;5078414;28;20051;-67
2021/07/08 02:07:34;;;;;;;13.13;6.50;;;17.40;99.90;;;;;;5077483;28;20691;-66
2021/07/08 02:10:01;;;;;;;9.98;6.30;;;17.40;99.90;;;;;;5078528;28;20218;-67
2021/07/08 02:12:28;;;;;;;8.65;5.35;;;17.30;99.90;;;;;;5075083;28;20115;-67
2021/07/08 02:14:57;;;;;;;13.38;5.90;;;17.30;99.90;;;;;;5078134;28;20115;-67
2021/07/08 02:17:24;;;;;;;10.88;6.30;;;17.30;99.90;;;;;;5074231;28;20083;-67
2021/07/08 02:19:51;;;;;;;12.07;6.65;;;17.30;99.90;;;;;;5075895;28;20052;-67
2021/07/08 02:22:18;;;;;;;10.88;7.30;;;17.30;99.90;;;;;;5077887;28;20102;-66
2021/07/08 02:24:45;;;;;;;13.98;8.15;;;17.30;99.90;;;;;;5077861;28;20086;-67
2021/07/08 02:27:12;;;;;;;11.80;6.75;;;17.40;99.90;;;;;;5076963;28;20457;-67
2021/07/08 02:29:38;;;;;;;10.80;7.35;;;17.40;99.90;;;;;;5077429;28;20047;-67
2021/07/08 02:32:08;;;;;;;9.52;6.70;;;17.40;99.90;;;;;;5078273;28;20048;-67
2021/07/08 02:34:36;;;;;;;16.88;8.10;;;17.30;99.90;;;;;;5077498;28;20051;-67
2021/07/08 02:37:04;;;;;;;11.15;7.28;;;17.40;99.90;;;;;;5078832;28;20113;-67
2021/07/08 02:39:31;;;;;;;12.35;7.30;;;17.30;99.90;;;;;;5076109;28;20097;-67
2021/07/08 02:41:58;;;;;;;14.50;7.57;;;17.30;99.90;;;;;;5077008;28;20047;-66
2021/07/08 02:44:25;;;;;;;14.77;7.70;;;17.30;99.90;;;;;;5076938;28;20104;-67
2021/07/08 02:46:52;;;;;;;9.93;7.57;;;17.30;99.90;;;;;;5079100;28;20059;-67
2021/07/08 02:49:21;;;;;;;9.07;6.90;;;17.30;99.90;;;;;;5074233;28;20060;-67
2021/07/08 02:51:48;;;;;;;13.13;7.35;;;17.20;99.90;;;;;;5078208;28;20806;-67
2021/07/08 02:54:15;;;;;;;10.35;7.38;;;17.20;99.90;;;;;;5076826;28;20523;-67
2021/07/08 02:56:42;;;;;;;11.32;7.47;;;17.30;99.90;;;;;;5077037;28;20051;-66
2021/07/08 02:59:09;;;;;;;13.45;7.15;;;17.30;99.90;;;;;;5078176;28;20079;-67
2021/07/08 03:01:36;;;;;;;9.75;7.20;;;17.30;99.90;;;;;;5077114;28;20079;-66
2021/07/08 03:04:05;;;;;;;11.90;7.85;;;17.30;99.90;;;;;;5079113;28;21043;-66
2021/07/08 03:06:33;;;;;;;14.48;7.72;;;17.20;99.90;;;;;;5077902;28;20512;-67
2021/07/08 03:09:00;;;;;;;12.10;8.00;;;17.20;99.90;;;;;;5077119;28;20056;-67
2021/07/08 03:11:27;;;;;;;11.23;7.32;;;17.20;99.90;;;;;;5079306;28;20105;-67
2021/07/08 03:13:54;;;;;;;12.40;7.93;;;17.30;99.90;;;;;;5078287;28;20083;-67
2021/07/08 03:16:21;;;;;;;13.60;8.40;;;17.20;99.90;;;;;;5074219;28;20133;-67
2021/07/08 03:18:48;;;;;;;15.43;7.75;;;17.20;99.90;;;;;;5076824;28;20052;-67
2021/07/08 03:21:15;;;;;;;12.98;7.75;;;17.20;99.90;;;;;;5077411;28;20614;-67
2021/07/08 03:23:43;;;;;;;13.27;8.45;;;17.20;99.90;;;;;;5078387;28;20461;-67
2021/07/08 03:26:10;;;;;;;17.00;9.02;;;17.20;99.90;;;;;;5077995;28;20930;-67
2021/07/08 03:28:38;;;;;;;15.30;8.50;;;17.20;99.90;;;;;;5075827;28;20730;-66
2021/07/08 03:31:05;;;;;;;12.52;7.63;;;17.20;99.90;;;;;;5074571;28;20165;-67
2021/07/08 03:33:32;;;;;;;10.70;7.88;;;17.20;99.90;;;;;;5077749;28;20139;-67
2021/07/08 03:35:59;;;;;;;12.60;7.55;;;17.20;99.90;;;;;;5077849;28;20047;-67
2021/07/08 03:38:26;;;;;;;11.70;7.45;;;17.20;99.90;;;;;;5077682;28;20104;-67
2021/07/08 03:40:55;;;;;;;14.30;8.00;;;17.20;99.90;;;;;;5078281;28;20054;-66
2021/07/08 03:43:22;;;;;;;12.25;7.38;;;17.10;99.90;;;;;;5078560;28;20452;-67
2021/07/08 03:45:49;;;;;;;9.50;6.30;;;17.10;99.90;;;;;;5075186;28;20246;-67
2021/07/08 03:48:16;;;;;;;12.73;6.28;;;17.10;99.90;;;;;;5079519;28;20087;-67
2021/07/08 03:50:43;;;;;;;13.15;5.97;;;17.10;99.90;;;;;;5079337;28;20095;-67
2021/07/08 03:53:10;;;;;;;10.45;5.78;;;17.10;99.90;;;;;;5078820;28;20048;-66
2021/07/08 03:55:37;;;;;;;13.13;5.90;;;17.10;99.90;;;;;;5080824;27;20098;-67
2021/07/08 03:58:08;;;;;;;10.85;6.30;;;17.20;99.90;;;;;;5081924;28;20090;-68
2021/07/08 04:00:38;;;;;;;12.20;6.13;;;17.10;99.90;;;;;;5080341;28;20101;-67
2021/07/08 04:03:07;;;;;;;13.95;6.32;;;17.00;99.90;;;;;;5080878;28;20083;-67
2021/07/08 04:05:35;;;;;;;8.60;6.03;;;17.10;99.90;;;;;;5080657;28;20048;-66
2021/07/08 04:08:02;;;;;;;10.02;6.32;;;17.20;99.90;;;;;;5079947;28;20099;-66
2021/07/08 04:10:29;;;;;;;16.15;6.40;;;17.20;99.90;;;;;;5081245;28;20044;-66
2021/07/08 04:12:56;;;;;;;12.50;6.65;;;17.20;99.90;;;;;;5081754;28;20256;-66
2021/07/08 04:15:25;;;;;;;15.63;6.00;;;17.30;99.90;;;;;;5079321;28;20515;-66
2021/07/08 04:17:52;;;;;;;13.43;5.65;;;17.20;99.90;;;;;;5079758;28;20055;-66
2021/07/08 04:20:20;;;;;;;17.85;6.18;;;17.20;99.90;;;;;;5079664;28;20043;-66
2021/07/08 04:22:48;;;;;;;12.55;5.63;;;17.20;99.90;;;;;;5080066;28;20087;-66
2021/07/08 04:25:15;;;;;;;9.20;5.35;;;17.30;99.90;;;;;;5080663;28;20467;-67
2021/07/08 04:27:43;;;;;;;12.02;6.07;;;17.20;99.90;;;;;;5077877;28;20132;-66
2021/07/08 04:30:15;;;;;;;10.50;5.90;;;17.30;99.90;;;;;;5080804;28;20565;-66
2021/07/08 04:32:43;;;;;;;13.93;5.72;;;17.30;99.90;;;;;;5082895;28;20067;-66
2021/07/08 04:35:14;;;;;;;8.77;5.55;;;17.30;99.90;;;;;;5078602;28;20090;-66
2021/07/08 04:37:42;;;;;;;12.60;5.00;;;17.40;99.90;;;;;;5078969;28;20070;-66
2021/07/08 04:40:11;;;;;;;12.32;5.85;;;17.50;99.90;;;;;;5081034;28;20757;-66
2021/07/08 04:42:38;;;;;;;10.65;5.75;;;17.50;99.90;;;;;;5078828;28;20109;-66
2021/07/08 04:45:06;;;;;;;10.73;5.30;;;17.60;99.90;;;;;;5078662;28;20147;-66
2021/07/08 04:47:33;;;;;;;17.30;6.15;;;17.70;99.90;;;;;;5079229;28;20086;-67
2021/07/08 04:50:01;;;;;;;16.35;6.63;;;17.60;99.90;;;;;;5079249;28;20047;-66
2021/07/08 04:52:28;;;;;;;13.43;6.10;;;17.70;99.90;;;;;;5076963;28;20159;-66
2021/07/08 04:54:55;;;;;;;11.45;5.45;;;17.80;99.90;;;;;;5078249;28;20086;-66
2021/07/08 04:57:22;;;;;;;9.95;5.05;;;17.90;99.90;;;;;;5079642;28;20080;-66
2021/07/08 04:59:49;;;;;;;12.05;5.28;;;17.90;99.90;;;;;;5075647;28;20140;-65
2021/07/08 05:02:16;;;;;;;11.05;5.50;;;17.90;99.90;;;;;;5075299;28;20048;-66
2021/07/08 05:04:43;;;;;;;11.13;6.03;;;17.90;99.90;;;;;;5078217;28;20512;-66
2021/07/08 05:07:13;;;;;;;16.67;5.97;;;17.90;99.90;;;;;;5080589;28;20087;-66
2021/07/08 05:09:40;;;;;;;15.13;5.75;;;17.80;99.90;;;;;;5080262;28;20056;-66
2021/07/08 05:12:08;;;;;;;12.07;5.60;;;17.80;99.90;;;;;;5078651;28;20101;-66
2021/07/08 05:14:35;;;;;;;11.55;5.72;;;17.90;99.90;;;;;;5081194;28;20108;-67
2021/07/08 05:17:03;;;;;;;10.35;5.80;;;17.90;99.90;;;;;;5077921;28;20086;-66
2021/07/08 05:19:30;;;;;;;13.85;6.53;;;17.80;99.90;;;;;;5078921;28;20598;-66
2021/07/08 05:21:59;;;;;;;17.48;5.70;;;17.80;99.90;;;;;;5082194;28;20076;-66
2021/07/08 05:24:28;;;;;;;10.95;5.82;;;17.80;99.90;;;;;;5080293;28;20060;-66
2021/07/08 05:26:55;;;;;;;12.40;5.93;;;17.90;99.90;;;;;;5082089;28;20482;-67
2021/07/08 05:29:23;;;;;;;11.02;5.35;;;17.90;99.90;;;;;;5082450;28;20564;-67
2021/07/08 05:31:50;;;;;;;17.45;5.72;;;17.90;99.90;;;;;;5083186;28;20079;-67
2021/07/08 05:34:17;;;;;;;25.50;6.30;;;17.80;99.90;;;;;;5082878;28;20104;-67
2021/07/08 05:36:44;;;;;;;15.23;6.53;;;17.90;99.90;;;;;;5079307;28;20075;-67
2021/07/08 05:39:11;;;;;;;18.23;6.30;;;17.90;99.90;;;;;;5078914;28;20047;-66
2021/07/08 05:41:40;;;;;;;15.35;6.75;;;17.80;99.90;;;;;;5077753;28;20113;-66
2021/07/08 05:44:07;;;;;;;15.80;6.50;;;17.80;99.90;;;;;;5079796;28;20401;-66
2021/07/08 05:46:34;;;;;;;17.55;7.03;;;17.80;99.90;;;;;;5081966;28;20167;-65
2021/07/08 05:49:01;;;;;;;18.67;7.68;;;17.70;99.90;;;;;;5080763;28;20112;-66
2021/07/08 05:51:30;;;;;;;21.77;8.32;;;17.70;99.90;;;;;;5077971;28;20048;-66
2021/07/08 05:53:59;;;;;;;18.52;8.00;;;17.70;99.90;;;;;;5081694;28;20063;-66
2021/07/08 05:56:27;;;;;;;14.43;8.00;;;17.70;99.90;;;;;;5078579;28;20615;-66
2021/07/08 05:58:55;;;;;;;15.30;7.82;;;17.70;99.90;;;;;;5079988;28;20102;-65
2021/07/08 06:01:22;;;;;;;15.15;8.65;;;17.70;99.90;;;;;;5079506;28;20117;-65
2021/07/08 06:03:49;;;;;;;16.98;8.30;;;17.70;99.90;;;;;;5080154;28;20060;-65
2021/07/08 06:06:17;;;;;;;16.98;7.55;;;17.70;99.90;;;;;;5082013;28;20055;-66
2021/07/08 06:08:44;;;;;;;14.30;8.38;;;17.60;99.90;;;;;;5078570;27;20611;-65
2021/07/08 06:11:12;;;;;;;17.92;8.43;;;17.70;99.90;;;;;;5080194;28;20040;-66
2021/07/08 06:13:39;;;;;;;16.77;9.18;;;17.70;99.90;;;;;;5080991;28;20523;-65
2021/07/08 06:16:08;;;;;;;17.13;9.75;;;17.60;99.90;;;;;;5078227;28;20131;-66
2021/07/08 06:18:36;;;;;;;18.27;9.20;;;17.70;99.90;;;;;;5077590;28;20055;-65
2021/07/08 06:21:03;;;;;;;16.88;9.40;;;17.70;99.90;;;;;;5082141;28;20067;-65
2021/07/08 06:23:30;;;;;;;19.88;9.90;;;17.80;99.90;;;;;;5082380;28;20508;-65
2021/07/08 06:25:58;;;;;;;14.73;8.98;;;17.80;99.90;;;;;;5082818;28;20059;-66
2021/07/08 06:28:25;;;;;;;13.88;8.88;;;17.80;99.90;;;;;;5078597;28;20044;-66
2021/07/08 06:30:52;;;;;;;16.63;10.18;;;17.80;99.90;;;;;;5077868;28;20183;-65
2021/07/08 06:33:20;;;;;;;14.57;8.25;;;17.80;99.90;;;;;;5080105;28;20553;-65
2021/07/08 06:35:48;;;;;;;18.75;8.68;;;17.70;99.90;;;;;;5078776;28;20577;-65
2021/07/08 06:38:15;;;;;;;16.27;8.85;;;17.70;99.90;;;;;;5079177;28;20052;-65
2021/07/08 06:40:42;;;;;;;15.25;9.65;;;17.70;99.90;;;;;;5078333;28;20062;-65
2021/07/08 06:43:09;;;;;;;15.88;9.23;;;17.70;99.90;;;;;;5079833;28;20129;-65
2021/07/08 06:45:37;;;;;;;15.50;10.00;;;17.70;99.90;;;;;;5079266;28;20056;-65
2021/07/08 06:48:04;;;;;;;16.05;9.35;;;17.80;99.90;;;;;;5077850;28;20052;-65
2021/07/08 06:50:35;;;;;;;15.90;9.32;;;17.80;99.90;;;;;;5079484;28;20079;-65
2021/07/08 06:53:02;;;;;;;16.20;10.10;;;17.70;99.90;;;;;;5081824;28;20278;-65
2021/07/08 06:55:29;;;;;;;13.55;8.73;;;17.70;99.90;;;;;;5077617;28;20113;-65
2021/07/08 06:57:56;;;;;;;15.15;9.73;;;17.60;99.90;;;;;;5078523;28;20063;-65
2021/07/08 07:00:25;;;;;;;13.88;9.18;;;17.60;99.90;;;;;;5079293;28;20052;-65
2021/07/08 07:02:52;;;;;;;12.73;9.27;;;17.60;99.90;;;;;;5080318;28;20051;-65
2021/07/08 07:05:19;;;;;;;18.40;11.55;;;17.60;99.90;;;;;;5078606;28;20056;-64
2021/07/08 07:07:48;;;;;;;16.33;10.52;;;17.50;99.90;;;;;;5078737;28;20052;-64
2021/07/08 07:10:16;;;;;;;18.05;11.32;;;17.60;99.90;;;;;;5079622;28;20469;-64
2021/07/08 07:12:44;;;;;;;15.00;9.98;;;17.50;99.90;;;;;;5078632;28;20051;-64
2021/07/08 07:15:12;;;;;;;18.42;11.15;;;17.50;99.90;;;;;;5078978;28;20060;-64
2021/07/08 07:17:39;;;;;;;19.48;12.00;;;17.50;99.90;;;;;;5076693;28;20047;-64
2021/07/08 07:20:08;;;;;;;21.10;13.35;;;17.60;99.90;;;;;;5077292;28;21029;-64
2021/07/08 07:22:36;;;;;;;20.75;12.98;;;17.50;99.90;;;;;;5078515;28;20458;-64
2021/07/08 07:25:06;;;;;;;25.75;14.20;;;17.60;99.90;;;;;;5080992;28;20055;-64
2021/07/08 07:27:33;;;;;;;27.58;14.48;;;17.60;99.90;;;;;;5079532;28;20084;-64
2021/07/08 07:30:03;;;;;;;29.30;15.88;;;17.70;99.90;;;;;;5083025;28;20063;-64
2021/07/08 07:32:30;;;;;;;22.23;14.93;;;17.70;99.90;;;;;;5080659;28;20078;-64
2021/07/08 07:34:57;;;;;;;26.58;16.25;;;17.70;99.90;;;;;;5079905;28;20142;-64
2021/07/08 07:37:24;;;;;;;27.00;16.08;;;17.80;99.90;;;;;;5078077;28;21102;-65
2021/07/08 07:39:51;;;;;;;27.23;15.95;;;17.80;99.90;;;;;;5080267;28;20508;-65
2021/07/08 07:42:20;;;;;;;26.33;15.43;;;17.90;99.90;;;;;;5079449;28;20555;-64
2021/07/08 07:44:48;;;;;;;21.98;15.32;;;17.90;99.90;;;;;;5079697;28;20565;-65
2021/07/08 07:47:15;;;;;;;22.77;15.40;;;18.00;99.90;;;;;;5080398;28;20071;-65
2021/07/08 07:49:43;;;;;;;22.77;15.30;;;18.10;99.90;;;;;;5079374;28;20075;-64
2021/07/08 07:52:12;;;;;;;24.52;14.98;;;18.10;99.90;;;;;;5081558;28;20143;-64
2021/07/08 07:54:40;;;;;;;20.77;14.68;;;18.10;99.90;;;;;;5082378;28;20060;-64
2021/07/08 07:57:08;;;;;;;21.70;13.63;;;18.10;99.90;;;;;;5079978;28;21133;-65
2021/07/08 07:59:37;;;;;;;21.60;14.48;;;18.10;99.90;;;;;;5078200;28;20051;-64
2021/07/08 08:02:10;;;;;;;21.17;13.38;;;18.20;99.90;;;;;;5080800;28;20117;-65
2021/07/08 08:04:42;;;;;;;19.20;12.75;;;18.10;99.90;;;;;;5080180;28;20067;-64
2021/07/08 08:09:53;;;;;;;19.38;13.60;;;18.30;99.90;;;;;;5077042;28;20849;-64
2021/07/08 08:12:20;;;;;;;19.20;12.70;;;18.50;99.90;;;;;;5078817;28;20052;-64
2021/07/08 08:14:49;;;;;;;24.83;12.45;;;18.50;99.90;;;;;;5080839;28;20097;-64
2021/07/08 08:17:16;;;;;;;21.25;11.45;;;18.60;99.90;;;;;;5077986;28;20079;-64
2021/07/08 08:19:43;;;;;;;16.83;11.38;;;18.60;99.90;;;;;;5079505;28;20051;-64
2021/07/08 08:22:11;;;;;;;28.25;14.35;;;18.40;99.90;;;;;;5077891;28;20133;-64
2021/07/08 08:24:38;;;;;;;19.10;13.07;;;18.40;99.90;;;;;;5080091;28;20055;-64
2021/07/08 08:27:06;;;;;;;17.58;11.45;;;18.50;99.90;;;;;;5079276;28;20147;-64
2021/07/08 08:29:33;;;;;;;20.25;11.32;;;18.60;99.90;;;;;;5080880;28;20090;-65
2021/07/08 08:32:01;;;;;;;17.67;11.90;;;18.70;99.90;;;;;;5077440;28;20083;-64
2021/07/08 08:34:28;;;;;;;16.35;11.77;;;18.70;99.90;;;;;;5078570;28;20478;-65
2021/07/08 08:36:55;;;;;;;17.15;11.48;;;18.70;99.90;;;;;;5079670;28;20136;-64
2021/07/08 08:39:22;;;;;;;18.83;11.85;;;18.70;99.90;;;;;;5076490;28;20056;-64
2021/07/08 08:41:49;;;;;;;17.38;11.00;;;18.70;99.90;;;;;;5081530;28;20104;-64
2021/07/08 08:44:16;;;;;;;19.27;10.18;;;18.70;99.90;;;;;;5079052;28;20048;-64
2021/07/08 08:46:43;;;;;;;15.13;9.68;;;18.70;99.90;;;;;;5079214;28;20584;-65
2021/07/08 08:49:12;;;;;;;13.80;8.07;;;18.90;99.90;;;;;;5076945;28;20113;-64
2021/07/08 08:51:39;;;;;;;15.27;9.40;;;19.00;99.90;;;;;;5077262;28;20105;-65
2021/07/08 08:54:06;;;;;;;14.20;8.43;;;18.90;99.90;;;;;;5079291;28;20135;-64
2021/07/08 08:56:33;;;;;;;15.85;9.55;;;18.90;99.90;;;;;;5077453;28;20080;-64
2021/07/08 08:59:00;;;;;;;13.25;9.50;;;19.00;99.90;;;;;;5077615;28;20098;-64
2021/07/08 09:01:29;;;;;;;18.83;9.35;;;19.00;99.90;;;;;;5078581;28;20297;-65
2021/07/08 09:03:55;;;;;;;10.82;7.88;;;19.10;99.90;;;;;;5077760;28;20051;-65
2021/07/08 09:06:35;;;;;;;15.50;8.88;;;19.10;99.90;;;;;;5078466;28;20499;-65
2021/07/08 09:09:09;;;;;;;11.75;8.77;;;19.10;99.90;;;;;;5077415;28;20055;-65
2021/07/08 09:11:37;;;;;;;12.77;8.05;;;19.10;99.90;;;;;;5078517;28;20050;-65
2021/07/08 09:14:05;;;;;;;10.93;7.85;;;19.10;99.90;;;;;;5077674;28;20485;-65
2021/07/08 09:16:34;;;;;;;17.83;8.32;;;19.20;99.90;;;;;;5077793;28;20466;-66
2021/07/08 09:19:08;;;;;;;13.88;8.18;;;19.30;99.90;;;;;;5075658;28;20059;-65
2021/07/08 09:21:39;;;;;;;11.80;8.52;;;19.50;99.90;;;;;;5075945;28;20143;-65
2021/07/08 09:24:13;;;;;;;11.45;7.60;;;19.60;99.90;;;;;;5079884;28;20653;-66
2021/07/08 09:26:43;;;;;;;13.38;6.65;;;19.80;99.90;;;;;;5078102;28;20055;-66
2021/07/08 09:29:11;;;;;;;10.82;6.47;;;19.90;99.90;;;;;;5077290;28;20075;-66
2021/07/08 09:31:39;;;;;;;7.72;5.70;;;20.40;99.90;;;;;;5076927;28;20134;-66
2021/07/08 09:34:14;;;;;;;15.77;5.90;;;20.70;99.90;;;;;;5077157;28;20051;-66
2021/07/08 09:36:43;;;;;;;11.52;6.50;;;20.70;99.90;;;;;;5078876;28;20587;-67
2021/07/08 09:39:11;;;;;;;7.97;5.03;;;20.80;99.90;;;;;;5078044;28;20105;-65
2021/07/08 09:41:50;;;;;;;8.70;5.13;;;20.80;99.90;;;;;;5079091;28;20064;-66
2021/07/08 09:44:26;;;;;;;8.80;4.78;;;20.70;99.90;;;;;;5076927;28;20505;-66
2021/07/08 09:46:55;;;;;;;8.30;4.03;;;20.80;99.90;;;;;;5081190;28;20127;-66
2021/07/08 09:49:23;;;;;;;7.85;5.28;;;21.00;99.90;;;;;;5075947;28;20462;-66
2021/07/08 09:51:52;;;;;;;10.38;5.50;;;21.00;99.90;;;;;;5079177;28;20149;-66
2021/07/08 09:54:48;;;;;;;7.22;3.83;;;20.90;99.90;;;;;;5077374;28;20582;-66
2021/07/08 09:57:35;;;;;;;6.05;3.10;;;20.80;99.90;;;;;;5077937;28;20102;-66
2021/07/08 10:00:05;;;;;;;10.35;4.07;;;21.00;99.90;;;;;;5080385;28;20082;-66
2021/07/08 10:02:33;;;;;;;12.98;4.30;;;21.10;99.90;;;;;;5079296;28;20059;-68
2021/07/08 10:05:00;;;;;;;10.52;4.40;;;21.20;99.90;;;;;;5077838;28;20079;-67
2021/07/08 10:07:30;;;;;;;10.13;4.50;;;21.30;99.90;;;;;;5077111;28;20044;-66
2021/07/08 10:09:57;;;;;;;7.75;4.20;;;21.60;99.90;;;;;;5077386;28;20120;-66
2021/07/08 10:12:25;;;;;;;8.57;4.93;;;21.60;99.90;;;;;;5077698;28;20059;-66
2021/07/08 10:14:52;;;;;;;8.50;4.07;;;22.00;99.90;;;;;;5077669;28;20212;-67
2021/07/08 10:17:23;;;;;;;10.13;4.95;;;22.20;99.90;;;;;;5077865;28;20048;-67
2021/07/08 10:19:53;;;;;;;9.27;4.50;;;22.30;99.90;;;;;;5079405;28;20450;-67
2021/07/08 10:22:21;;;;;;;7.82;4.28;;;22.40;99.90;;;;;;5079849;28;20449;-67
2021/07/08 10:24:50;;;;;;;7.15;4.35;;;22.50;99.90;;;;;;5080448;28;20083;-67
2021/07/08 10:27:17;;;;;;;5.95;3.72;;;22.80;99.90;;;;;;5079595;28;20130;-66
2021/07/08 10:29:45;;;;;;;5.22;3.10;;;23.20;99.90;;;;;;5077691;28;20137;-67
2021/07/08 10:32:14;;;;;;;6.18;3.50;;;23.10;99.90;;;;;;5079028;28;20079;-66
2021/07/08 10:34:45;;;;;;;6.30;3.20;;;23.50;99.90;;;;;;5077979;28;20052;-66
2021/07/08 10:37:21;;;;;;;6.68;3.00;;;23.80;99.90;;;;;;5075979;28;20083;-67
2021/07/08 10:39:49;;;;;;;6.25;2.65;;;23.70;99.90;;;;;;5078460;28;20084;-67
2021/07/08 10:42:47;;;;;;;6.63;2.35;;;23.50;99.90;;;;;;5079139;28;20532;-67
2021/07/08 10:45:43;;;;;;;4.07;2.35;;;23.60;99.90;;;;;;5078204;28;20174;-67
2021/07/08 10:48:12;;;;;;;4.18;2.63;;;23.50;99.90;;;;;;5070909;28;20996;-67
2021/07/08 10:50:41;;;;;;;5.28;2.85;;;23.50;99.90;;;;;;5076765;28;20047;-67
2021/07/08 10:53:23;;;;;;;5.25;2.53;;;23.60;99.90;;;;;;5076316;28;20048;-68
2021/07/08 10:55:55;;;;;;;5.28;2.35;;;23.50;99.90;;;;;;5078443;28;20074;-67
2021/07/08 10:58:40;;;;;;;6.25;2.70;;;23.80;99.90;;;;;;5076823;28;20124;-67
2021/07/08 11:01:10;;;;;;;7.60;2.80;;;23.70;99.90;;;;;;5080344;28;20252;-67
2021/07/08 11:03:42;;;;;;;9.32;2.70;;;23.80;99.90;;;;;;5080033;28;20087;-67
2021/07/08 11:06:20;;;;;;;6.88;2.35;;;23.60;99.90;;;;;;5078178;28;20080;-67
2021/07/08 11:09:05;;;;;;;7.55;3.33;;;23.60;99.90;;;;;;5081333;28;20048;-67
2021/07/08 11:12:04;;;;;;;6.07;3.25;;;23.50;99.90;;;;;;5079013;28;20569;-67
2021/07/08 11:14:35;;;;;;;4.78;2.92;;;23.50;99.90;;;;;;5080664;28;20048;-67
2021/07/08 11:17:15;;;;;;;5.43;2.42;;;23.40;99.90;;;;;;5077572;28;20055;-68
2021/07/08 11:19:46;;;;;;;6.28;3.28;;;23.20;99.90;;;;;;5075653;28;20044;-68
2021/07/08 11:22:24;;;;;;;5.93;2.40;;;22.90;99.90;;;;;;5079761;28;20101;-68
2021/07/08 11:24:52;;;;;;;5.03;2.42;;;23.00;99.90;;;;;;5079463;28;20133;-67
2021/07/08 11:27:33;;;;;;;4.35;2.40;;;22.80;99.90;;;;;;5079107;28;20056;-67
2021/07/08 11:30:03;;;;;;;7.75;2.92;;;22.60;99.90;;;;;;5082036;28;20950;-67
2021/07/08 11:32:37;;;;;;;8.10;2.80;;;22.50;99.90;;;;;;5079848;28;20466;-67
2021/07/08 11:35:07;;;;;;;7.18;2.50;;;22.90;99.90;;;;;;5079664;28;20104;-67
2021/07/08 11:37:40;;;;;;;5.25;2.15;;;23.00;99.90;;;;;;5078485;28;20493;-68
2021/07/08 11:40:10;;;;;;;7.97;2.67;;;23.10;99.90;;;;;;5078310;28;20215;-68
2021/07/08 11:42:40;;;;;;;5.45;2.45;;;23.00;99.90;;;;;;5077652;28;20086;-68
2021/07/08 11:45:10;;;;;;;6.43;2.50;;;23.10;99.90;;;;;;5079536;28;20044;-67
2021/07/08 11:47:41;;;;;;;4.82;2.10;;;23.30;99.90;;;;;;5077018;28;20176;-68
2021/07/08 11:50:19;;;;;;;3.72;2.20;;;23.20;99.90;;;;;;5080655;28;20047;-67
2021/07/08 11:52:47;;;;;;;2.80;2.08;;;23.40;99.90;;;;;;5080518;28;20087;-68
2021/07/08 11:55:14;;;;;;;7.07;2.10;;;23.70;99.90;;;;;;5077652;28;20161;-68
2021/07/08 11:57:59;;;;;;;5.78;2.42;;;24.00;99.90;;;;;;5076516;28;20052;-67
2021/07/08 12:00:34;;;;;;;4.38;2.10;;;24.30;99.90;;;;;;5077384;28;20139;-68
2021/07/08 12:03:02;;;;;;;2.63;1.83;;;24.50;99.90;;;;;;5078834;28;20113;-68
2021/07/08 12:05:30;;;;;;;2.63;1.75;;;24.70;99.90;;;;;;5080684;28;20139;-68
2021/07/08 12:08:01;;;;;;;5.32;2.15;;;25.20;99.90;;;;;;5078749;28;20511;-68
2021/07/08 12:10:32;;;;;;;4.50;2.20;;;25.50;99.90;;;;;;5083021;28;20055;-69
2021/07/08 12:13:02;;;;;;;5.10;2.10;;;25.50;99.90;;;;;;5082644;28;20132;-68
2021/07/08 12:15:29;;;;;;;3.67;1.95;;;26.10;99.90;;;;;;5078025;28;20051;-68
2021/07/08 12:17:58;;;;;;;9.45;2.08;;;26.40;99.90;;;;;;5078919;28;20051;-68
2021/07/08 12:20:26;;;;;;;3.20;2.10;;;26.30;99.90;;;;;;5080067;28;20048;-67
2021/07/08 12:22:58;;;;;;;3.47;2.10;;;26.30;99.90;;;;;;5079527;28;20444;-68
2021/07/08 12:25:26;;;;;;;3.97;2.30;;;26.10;99.90;;;;;;5077398;28;20079;-68
2021/07/08 12:27:56;;;;;;;3.88;2.05;;;26.00;99.90;;;;;;5083073;28;20112;-68
2021/07/08 12:30:26;;;;;;;3.60;1.80;;;25.60;99.90;;;;;;5080109;28;20424;-67
2021/07/08 12:33:11;;;;;;;3.85;2.08;;;25.70;99.90;;;;;;5082103;28;20127;-68
2021/07/08 12:35:46;;;;;;;11.02;2.17;;;25.50;99.90;;;;;;5080566;28;20473;-67
2021/07/08 12:38:16;;;;;;;5.30;2.50;;;25.30;99.90;;;;;;5081614;28;20393;-68
2021/07/08 12:40:44;;;;;;;3.95;2.35;;;25.00;99.90;;;;;;5080792;28;20105;-68
2021/07/08 12:43:13;;;;;;;4.50;2.15;;;25.00;99.90;;;;;;5081754;28;20135;-68
2021/07/08 12:45:43;;;;;;;5.57;2.30;;;24.80;99.90;;;;;;5082238;28;20083;-67
2021/07/08 12:48:12;;;;;;;4.78;2.22;;;24.70;99.90;;;;;;5082585;28;20131;-68
2021/07/08 12:50:42;;;;;;;5.82;2.38;;;24.60;99.90;;;;;;5081494;28;20285;-68